createdAt,value
2019-02-03T00:01:12.732Z,40.90
2019-02-03T00:03:48.114Z,36.33
2019-02-03T00:06:22.501Z,39.40
2019-02-03T00:08:54.384Z,38.73
2019-02-03T00:11:20.828Z,36.30
2019-02-03T00:13:52.820Z,34.63
2019-02-03T00:16:18.823Z,34.83
2019-02-03T00:18:48.796Z,34.60
2019-02-03T00:21:17.022Z,34.30
2019-02-03T00:23:45.472Z,34.70
2019-02-03T00:26:17.551Z,50.27
2019-02-03T00:28:52.157Z,48.23
2019-02-03T00:31:20.313Z,33.03
2019-02-03T00:33:53.195Z,43.00
2019-02-03T00:36:45.257Z,45.90
2019-02-03T00:39:22.665Z,33.07
2019-02-03T00:41:48.914Z,32.90
2019-02-03T00:44:18.668Z,34.17
2019-02-03T00:46:45.063Z,33.10
2019-02-03T00:49:13.191Z,29.70
2019-02-03T00:51:50.511Z,36.30
2019-02-03T00:54:17.962Z,34.17
2019-02-03T00:56:49.590Z,32.47
2019-02-03T00:59:25.876Z,34.80
2019-02-03T01:01:52.113Z,31.73
2019-02-03T01:04:20.388Z,32.50
2019-02-03T01:06:46.616Z,31.63
2019-02-03T01:09:17.823Z,32.33
2019-02-03T01:11:46.046Z,30.37
2019-02-03T01:14:14.795Z,33.43
2019-02-03T01:16:57.133Z,32.70
2019-02-03T01:19:26.777Z,36.97
2019-02-03T01:22:05.120Z,37.10
2019-02-03T01:24:32.235Z,35.50
2019-02-03T01:26:58.648Z,32.23
2019-02-03T01:29:27.044Z,37.77
2019-02-03T01:31:54.091Z,33.78
2019-02-03T01:34:20.544Z,37.50
2019-02-03T01:36:58.741Z,36.90
2019-02-03T01:39:31.125Z,38.67
2019-02-03T01:41:59.207Z,35.47
2019-02-03T01:47:06.972Z,38.20
2019-02-03T01:49:36.282Z,40.03
2019-02-03T01:52:04.560Z,35.90
2019-02-03T01:54:31.698Z,35.50
2019-02-03T01:57:01.000Z,40.05
2019-02-03T01:59:27.288Z,40.43
2019-02-03T02:02:10.434Z,37.03
2019-02-03T02:04:46.211Z,40.20
2019-02-03T02:07:22.519Z,40.77
2019-02-03T02:09:57.009Z,38.17
2019-02-03T02:12:23.173Z,40.40
2019-02-03T02:14:51.420Z,44.90
2019-02-03T02:17:25.727Z,43.47
2019-02-03T02:19:53.018Z,46.80
2019-02-03T02:22:25.713Z,45.73
2019-02-03T02:24:56.289Z,46.07
2019-02-03T02:27:36.852Z,52.40
2019-02-03T02:30:13.887Z,54.15
2019-02-03T02:32:42.568Z,48.78
2019-02-03T02:35:22.465Z,57.75
2019-02-03T02:38:06.864Z,56.23
2019-02-03T02:41:00.768Z,51.73
2019-02-03T02:43:38.014Z,47.00
2019-02-03T02:46:04.207Z,59.58
2019-02-03T02:48:30.392Z,54.65
2019-02-03T02:51:06.178Z,57.15
2019-02-03T02:53:32.536Z,57.20
2019-02-03T02:56:04.036Z,54.27
2019-02-03T02:58:30.241Z,57.00
2019-02-03T03:00:57.831Z,55.73
2019-02-03T03:03:32.905Z,57.95
2019-02-03T03:06:01.250Z,59.03
2019-02-03T03:08:35.686Z,55.73
2019-02-03T03:11:08.394Z,51.55
2019-02-03T03:13:40.655Z,55.03
2019-02-03T03:16:07.261Z,51.55
2019-02-03T03:18:37.770Z,52.30
2019-02-03T03:21:12.540Z,57.15
2019-02-03T03:23:40.738Z,57.88
2019-02-03T03:26:14.210Z,54.70
2019-02-03T03:28:41.343Z,56.48
2019-02-03T03:31:16.586Z,56.60
2019-02-03T03:33:42.941Z,55.05
2019-02-03T03:36:12.318Z,52.65
2019-02-03T03:38:42.456Z,59.00
2019-02-03T03:41:16.076Z,53.55
2019-02-03T03:43:43.248Z,52.15
2019-02-03T03:46:10.470Z,61.45
2019-02-03T03:48:39.914Z,60.38
2019-02-03T03:51:15.099Z,54.73
2019-02-03T03:53:55.387Z,58.17
2019-02-03T03:56:24.557Z,60.03
2019-02-03T03:58:50.680Z,53.58
2019-02-03T04:01:22.963Z,54.23
2019-02-03T04:03:53.284Z,56.28
2019-02-03T04:06:20.748Z,50.73
2019-02-03T04:08:50.025Z,63.45
2019-02-03T04:11:16.490Z,49.33
2019-02-03T04:13:44.666Z,50.05
2019-02-03T04:16:10.728Z,52.30
2019-02-03T04:18:41.610Z,60.35
2019-02-03T04:21:11.298Z,52.13
2019-02-03T04:23:44.607Z,53.83
2019-02-03T04:26:13.889Z,49.90
2019-02-03T04:28:58.304Z,46.15
2019-02-03T04:31:31.182Z,52.50
2019-02-03T04:34:05.463Z,48.05
2019-02-03T04:36:40.709Z,45.48
2019-02-03T04:39:15.392Z,47.00
2019-02-03T04:41:42.625Z,45.12
2019-02-03T04:44:13.011Z,53.45
2019-02-03T04:46:39.153Z,48.95
2019-02-03T04:49:11.725Z,52.88
2019-02-03T04:51:49.389Z,47.67
2019-02-03T04:54:15.480Z,47.98
2019-02-03T04:56:49.019Z,55.70
2019-02-03T04:59:27.516Z,50.30
2019-02-03T05:02:01.016Z,54.95
2019-02-03T05:04:48.702Z,49.70
2019-02-03T05:07:20.673Z,48.75
2019-02-03T05:09:59.080Z,58.73
2019-02-03T05:12:27.653Z,52.80
2019-02-03T05:14:54.905Z,50.67
2019-02-03T05:17:25.132Z,49.70
2019-02-03T05:19:51.317Z,54.53
2019-02-03T05:22:23.703Z,48.98
2019-02-03T05:24:49.772Z,47.48
2019-02-03T05:27:17.557Z,50.55
2019-02-03T05:29:53.820Z,54.73
2019-02-03T05:32:22.102Z,56.80
2019-02-03T05:34:48.306Z,50.45
2019-02-03T05:37:18.770Z,49.95
2019-02-03T05:39:52.739Z,50.98
2019-02-03T05:42:29.129Z,55.28
2019-02-03T05:45:00.654Z,48.70
2019-02-03T05:47:45.423Z,48.85
2019-02-03T05:50:18.492Z,45.65
2019-02-03T05:52:45.709Z,53.33
2019-02-03T05:55:24.967Z,48.25
2019-02-03T05:57:52.160Z,47.62
2019-02-03T06:00:32.537Z,49.93
2019-02-03T06:03:08.306Z,50.73
2019-02-03T06:05:34.644Z,47.85
2019-02-03T06:08:02.052Z,51.45
2019-02-03T06:10:31.056Z,51.53
2019-02-03T06:12:57.570Z,53.87
2019-02-03T06:15:36.141Z,47.55
2019-02-03T06:18:05.407Z,50.15
2019-02-03T06:20:43.841Z,52.85
2019-02-03T06:23:11.973Z,46.63
2019-02-03T06:25:49.121Z,42.25
2019-02-03T06:28:16.465Z,45.43
2019-02-03T06:30:56.256Z,43.90
2019-02-03T06:33:24.560Z,44.33
2019-02-03T06:35:54.783Z,44.93
2019-02-03T06:38:23.277Z,39.65
2019-02-03T06:40:58.096Z,39.58
2019-02-03T06:43:36.579Z,41.48
2019-02-03T06:46:15.384Z,35.60
2019-02-03T06:48:42.629Z,35.17
2019-02-03T06:51:16.513Z,40.08
2019-02-03T06:53:55.882Z,38.00
2019-02-03T06:56:23.095Z,40.78
2019-02-03T06:58:56.882Z,36.77
2019-02-03T07:01:22.613Z,38.42
2019-02-03T07:03:49.722Z,38.65
2019-02-03T07:06:24.891Z,39.50
2019-02-03T07:08:53.371Z,40.03
2019-02-03T07:11:31.706Z,38.63
2019-02-03T07:14:01.104Z,30.15
2019-02-03T07:16:40.486Z,33.63
2019-02-03T07:19:04.792Z,32.17
2019-02-03T07:21:53.624Z,37.83
2019-02-03T07:24:26.527Z,32.55
2019-02-03T07:26:54.034Z,36.55
2019-02-03T07:29:20.322Z,35.55
2019-02-03T07:31:48.784Z,33.05
2019-02-03T07:34:23.791Z,38.92
2019-02-03T07:36:51.190Z,33.30
2019-02-03T07:39:30.871Z,30.00
2019-02-03T07:42:03.911Z,34.30
2019-02-03T07:44:31.061Z,33.05
2019-02-03T07:46:58.551Z,32.42
2019-02-03T07:49:30.616Z,38.78
2019-02-03T07:51:58.744Z,35.38
2019-02-03T07:54:31.749Z,34.08
2019-02-03T07:57:01.920Z,37.25
2019-02-03T07:59:29.029Z,34.08
2019-02-03T08:01:55.277Z,35.58
2019-02-03T08:04:25.351Z,41.73
2019-02-03T08:07:02.781Z,35.75
2019-02-03T08:09:47.712Z,33.55
2019-02-03T08:12:17.253Z,33.33
2019-02-03T08:14:50.729Z,38.40
2019-02-03T08:17:23.101Z,33.13
2019-02-03T08:20:10.923Z,37.80
2019-02-03T08:22:44.424Z,35.60
2019-02-03T08:25:24.982Z,32.80
2019-02-03T08:27:51.282Z,38.00
2019-02-03T08:30:29.987Z,33.93
2019-02-03T08:32:57.412Z,35.30
2019-02-03T08:35:29.762Z,33.57
2019-02-03T08:38:01.924Z,37.70
2019-02-03T08:40:37.194Z,33.90
2019-02-03T08:43:10.167Z,40.77
2019-02-03T08:45:38.493Z,33.80
2019-02-03T08:48:04.792Z,35.40
2019-02-03T08:50:32.395Z,31.90
2019-02-03T08:53:01.527Z,35.30
2019-02-03T08:55:29.758Z,47.23
2019-02-03T08:58:01.683Z,37.50
2019-02-03T09:00:42.428Z,43.53
2019-02-03T09:03:20.143Z,36.17
2019-02-03T09:05:46.434Z,36.43
2019-02-03T09:08:44.971Z,37.03
2019-02-03T09:11:11.839Z,42.77
2019-02-03T09:13:44.928Z,36.70
2019-02-03T09:16:12.133Z,35.67
2019-02-03T09:18:43.792Z,40.63
2019-02-03T09:21:10.215Z,42.40
2019-02-03T09:23:37.242Z,34.47
2019-02-03T09:26:08.601Z,34.97
2019-02-03T09:28:38.374Z,35.90
2019-02-03T09:31:04.519Z,38.87
2019-02-03T09:33:30.676Z,48.37
2019-02-03T09:36:08.099Z,40.60
2019-02-03T09:38:38.953Z,37.30
2019-02-03T09:41:05.338Z,44.73
2019-02-03T09:43:31.945Z,44.60
2019-02-03T09:46:01.615Z,49.83
2019-02-03T09:48:27.884Z,45.40
2019-02-03T09:50:56.114Z,46.57
2019-02-03T09:53:23.418Z,47.20
2019-02-03T09:55:54.899Z,100.43
2019-02-03T09:58:32.498Z,36.30
2019-02-03T10:01:00.873Z,40.87
2019-02-03T10:03:36.310Z,43.67
2019-02-03T10:06:05.233Z,44.10
2019-02-03T10:08:40.311Z,37.27
2019-02-03T10:11:11.707Z,43.83
2019-02-03T10:13:31.202Z,42.00
2019-02-03T10:16:09.633Z,42.73
2019-02-03T10:18:36.627Z,46.17
2019-02-03T10:21:08.961Z,41.60
2019-02-03T10:23:41.051Z,40.33
2019-02-03T10:26:09.621Z,37.90
2019-02-03T10:28:37.962Z,37.63
2019-02-03T10:31:06.837Z,41.70
2019-02-03T10:33:35.262Z,33.63
2019-02-03T10:36:10.515Z,38.20
2019-02-03T10:38:43.811Z,40.43
2019-02-03T10:41:23.686Z,38.60
2019-02-03T10:43:48.760Z,39.63
2019-02-03T10:46:19.022Z,35.10
2019-02-03T10:48:51.890Z,37.20
2019-02-03T10:51:20.370Z,35.03
2019-02-03T10:53:46.541Z,33.90
2019-02-03T10:56:19.097Z,35.33
2019-02-03T10:59:00.976Z,33.37
2019-02-03T11:01:27.305Z,33.93
2019-02-03T11:04:18.286Z,33.93
2019-02-03T11:06:47.711Z,31.77
2019-02-03T11:09:21.175Z,34.67
2019-02-03T11:11:52.585Z,42.57
2019-02-03T11:14:54.913Z,32.10
2019-02-03T11:17:31.521Z,35.90
2019-02-03T11:20:22.696Z,33.20
2019-02-03T11:22:52.328Z,35.43
2019-02-03T11:25:39.081Z,35.87
2019-02-03T11:28:11.428Z,32.97
2019-02-03T11:30:51.267Z,38.08
2019-02-03T11:33:25.373Z,34.60
2019-02-03T11:36:04.099Z,35.37
2019-02-03T11:38:30.678Z,35.83
2019-02-03T11:41:14.822Z,35.20
2019-02-03T11:43:48.796Z,37.67
2019-02-03T11:46:19.017Z,31.57
2019-02-03T11:48:45.660Z,41.07
2019-02-03T11:51:37.206Z,38.73
2019-02-03T11:54:23.736Z,37.30
2019-02-03T11:56:51.334Z,33.37
2019-02-03T11:59:25.150Z,31.53
2019-02-03T12:02:10.054Z,31.17
2019-02-03T12:04:43.306Z,37.50
2019-02-03T12:07:12.617Z,38.40
2019-02-03T12:09:39.811Z,41.92
2019-02-03T12:12:25.836Z,36.57
2019-02-03T12:14:58.526Z,36.25
2019-02-03T12:17:52.249Z,36.40
2019-02-03T12:20:32.011Z,36.23
2019-02-03T12:23:09.414Z,37.90
2019-02-03T12:25:44.509Z,38.03
2019-02-03T12:28:11.878Z,33.97
2019-02-03T12:30:38.524Z,40.10
2019-02-03T12:33:06.538Z,35.47
2019-02-03T12:35:42.561Z,32.27
2019-02-03T12:38:18.284Z,32.83
2019-02-03T12:41:00.668Z,40.27
2019-02-03T12:43:26.986Z,35.77
2019-02-03T12:45:53.330Z,37.30
2019-02-03T12:48:38.045Z,35.53
2019-02-03T12:51:06.049Z,37.10
2019-02-03T12:53:40.270Z,38.20
2019-02-03T12:56:07.552Z,31.20
2019-02-03T12:58:42.129Z,39.60
2019-02-03T13:01:32.141Z,36.43
2019-02-03T13:04:03.539Z,32.87
2019-02-03T13:06:42.872Z,36.15
2019-02-03T13:09:16.662Z,40.05
2019-02-03T13:11:42.751Z,31.93
2019-02-03T13:14:09.386Z,39.67
2019-02-03T13:16:37.659Z,41.73
2019-02-03T13:19:05.937Z,37.07
2019-02-03T13:21:34.284Z,28.43
2019-02-03T13:24:03.828Z,28.67
2019-02-03T13:26:37.246Z,36.80
2019-02-03T13:29:09.447Z,31.93
2019-02-03T13:31:36.596Z,29.80
2019-02-03T13:34:03.101Z,28.47
2019-02-03T13:36:29.595Z,35.07
2019-02-03T13:39:06.827Z,26.17
2019-02-03T13:41:41.196Z,35.10
2019-02-03T13:44:10.902Z,27.70
2019-02-03T13:46:37.029Z,25.33
2019-02-03T13:49:03.569Z,21.33
2019-02-03T13:51:31.740Z,24.03
2019-02-03T13:53:59.043Z,19.00
2019-02-03T13:56:27.682Z,19.83
2019-02-03T13:58:53.597Z,18.00
2019-02-03T14:01:39.595Z,19.43
2019-02-03T14:04:05.868Z,27.43
2019-02-03T14:09:27.633Z,19.00
2019-02-03T14:12:09.109Z,16.00
2019-02-03T14:14:55.479Z,14.23
2019-02-03T14:17:36.083Z,15.60
2019-02-03T14:23:28.153Z,22.00
2019-02-03T14:26:13.975Z,15.23
2019-02-03T14:29:22.244Z,13.77
2019-02-03T19:19:24.869Z,11.07
2019-02-03T19:21:51.914Z,8.85
2019-02-03T19:24:18.213Z,7.97
2019-02-03T19:26:44.497Z,11.10
2019-02-03T19:29:16.237Z,8.40
2019-02-03T19:31:42.384Z,9.00
2019-02-03T19:34:13.594Z,10.10
2019-02-03T19:36:39.619Z,9.10
2019-02-03T19:39:07.922Z,7.70
2019-02-03T19:41:34.356Z,8.37
2019-02-03T19:44:00.371Z,9.33
2019-02-03T19:46:26.394Z,11.47
2019-02-03T19:48:52.438Z,11.63
2019-02-03T19:51:18.489Z,11.47
2019-02-03T19:53:44.535Z,9.60
2019-02-03T19:56:10.547Z,8.53
2019-02-03T19:58:36.585Z,11.47
2019-02-03T20:02:07.880Z,10.70
2019-02-03T20:04:33.941Z,7.23
2019-02-03T20:06:59.979Z,10.03
2019-02-03T20:09:27.197Z,11.30
2019-02-03T20:11:53.287Z,7.37
2019-02-03T20:14:20.475Z,9.47
2019-02-03T20:16:46.539Z,12.20
2019-02-03T20:19:12.559Z,8.80
2019-02-03T20:21:38.657Z,8.07
2019-02-03T20:24:05.012Z,7.50
2019-02-03T20:26:31.559Z,10.20
2019-02-03T20:28:59.071Z,8.63
2019-02-03T20:31:25.129Z,10.43
2019-02-03T20:33:51.193Z,9.93
2019-02-03T20:36:17.531Z,10.57
2019-02-03T20:38:45.744Z,10.97
2019-02-03T20:41:11.954Z,10.70
2019-02-03T20:43:38.387Z,7.60
2019-02-03T20:46:04.763Z,10.97
2019-02-03T20:48:30.856Z,12.07
2019-02-03T20:50:56.944Z,9.03
2019-02-03T20:53:22.964Z,9.77
2019-02-03T20:55:49.143Z,9.17
2019-02-03T20:58:15.302Z,8.43
2019-02-03T21:00:41.538Z,10.13
2019-02-03T21:03:07.611Z,7.90
2019-02-03T21:05:34.056Z,10.60
2019-02-03T21:08:00.216Z,10.10
2019-02-03T21:10:26.405Z,9.97
2019-02-03T21:12:54.472Z,11.30
2019-02-03T21:15:33.031Z,10.43
2019-02-03T21:17:50.758Z,9.87
2019-02-03T21:20:21.560Z,10.70
2019-02-03T21:22:48.911Z,9.13
2019-02-03T21:25:16.376Z,10.20
2019-02-03T21:27:42.627Z,10.10
2019-02-03T21:30:18.602Z,11.60
2019-02-03T21:32:44.888Z,14.27
2019-02-03T21:35:11.132Z,10.27
2019-02-03T21:37:38.321Z,8.70
2019-02-03T21:40:08.226Z,9.93
2019-02-03T21:42:34.559Z,10.50
2019-02-03T21:45:00.687Z,9.70
2019-02-03T21:47:26.755Z,8.97
2019-02-03T21:49:53.605Z,10.43
2019-02-03T21:52:19.802Z,13.93
2019-02-03T21:54:45.828Z,7.80
2019-02-03T21:57:14.468Z,9.30
2019-02-03T21:59:40.117Z,9.70
2019-02-03T22:02:06.263Z,12.90
2019-02-03T22:04:32.316Z,12.73
2019-02-03T22:06:58.386Z,11.20
2019-02-03T22:09:24.501Z,13.60
2019-02-03T22:11:50.957Z,11.30
2019-02-03T22:14:17.003Z,14.13
2019-02-03T22:16:42.985Z,19.43
2019-02-03T22:19:09.015Z,13.77
2019-02-03T22:21:35.085Z,13.00
2019-02-03T22:24:02.538Z,15.20
2019-02-03T22:26:29.383Z,13.80
2019-02-03T22:28:57.135Z,18.53
2019-02-03T22:31:23.271Z,13.70
2019-02-03T22:33:49.692Z,16.33
2019-02-03T22:36:15.748Z,15.80
2019-02-03T22:38:44.608Z,15.20
2019-02-03T22:41:10.691Z,17.57
2019-02-03T22:43:37.089Z,17.73
2019-02-03T22:46:07.262Z,14.67
2019-02-03T22:48:31.586Z,15.77
2019-02-03T22:50:57.655Z,15.60
2019-02-03T22:53:23.760Z,15.33
2019-02-03T22:55:49.836Z,14.77
2019-02-03T22:58:16.010Z,14.63
2019-02-03T23:00:51.801Z,18.87
2019-02-03T23:03:20.197Z,15.90
2019-02-03T23:05:47.593Z,17.50
2019-02-03T23:08:13.660Z,16.10
2019-02-03T23:10:39.949Z,14.23
2019-02-03T23:13:06.983Z,16.43
2019-02-03T23:15:33.143Z,15.50
2019-02-03T23:17:59.644Z,17.23
2019-02-03T23:20:25.668Z,21.43
2019-02-03T23:22:51.731Z,16.07
2019-02-03T23:25:17.770Z,14.50
2019-02-03T23:27:43.843Z,16.40
2019-02-03T23:30:15.372Z,16.63
2019-02-03T23:32:45.560Z,16.97
2019-02-03T23:35:12.142Z,18.07
2019-02-03T23:37:39.334Z,14.87
2019-02-03T23:40:13.494Z,15.83
2019-02-03T23:42:39.534Z,17.53
2019-02-03T23:45:11.296Z,18.80
2019-02-03T23:47:37.364Z,21.57
2019-02-03T23:50:15.302Z,18.30
2019-02-03T23:52:41.419Z,16.30
2019-02-03T23:55:08.823Z,15.10
2019-02-03T23:57:35.276Z,20.33
